KEGI/EGI METAR and TAF weather

Enter ICAO airport designator
Station Type Date Time Source
KEGI METAR 2019/08/25 17:57 UTC NOAA

KEGI 251757Z AUTO 00000KT 10SM SCT033 SCT110 SCT140 BKN170 BKN190 29/23 A2997 RMK AO2 LTG DSNT NE TSE57 SLP148 $


Station Type Date Time Source
KEGI Decoded METAR 2019/08/25 17:57 UTC NOAA

Station name not available
Aug 25, 2019 - 01:57 PM EDT / 2019.08.25 1757 UTC
Wind: Calm:0
Visibility: 10 mile(s):0
Sky conditions: mostly cloudy
Weather: Lightning observed
Temperature: 84 F (29 C)
Dew Point: 73 F (23 C)
Relative Humidity: 70%
Pressure (altimeter): 29.97 in. Hg (1014 hPa)
ob: KEGI 251757Z AUTO 00000KT 10SM SCT033 SCT110 SCT140 BKN170 BKN190 29/23 A2997 RMK AO2 LTG DSNT NE TSE57 SLP148
cycle: 18

Station Type Date Time Source
KEGI TAF 2019/08/24 01:02 UTC NOAA

TAF KEGI 240100Z 2401/2507 23006KT 9999 FEW030 BKN200 QNH2995INS
BECMG 2412/2413 30009KT 9999 FEW025 SCT200 QNH2998INS
BECMG 2417/2418 31010KT 9000 -SHRA VCTS SCT025CB SCT100 BKN200 QNH2997INS
TEMPO 2418/2421 4800 -TSRA BKN025CB
BECMG 2421/2422 27009KT 9999 NSW FEW025 SCT100 BKN200 QNH2992INS TX33/2419Z TN23/2409Z LAST NO
AMDS AFT 2406 NEXT 2609

Example: see airport list